createdAt,value
2022-12-23T00:00:19.557Z,8.75
2022-12-23T00:02:46.554Z,10.02
2022-12-23T00:05:14.180Z,9.55
2022-12-23T00:07:40.912Z,12.07
2022-12-23T00:10:08.735Z,9.13
2022-12-23T00:12:35.546Z,12.73
2022-12-23T00:15:02.201Z,12.88
2022-12-23T00:17:30.296Z,11.52
2022-12-23T00:19:56.977Z,18.17
2022-12-23T00:22:24.170Z,10.27
2022-12-23T00:24:50.862Z,9.45
2022-12-23T00:27:17.566Z,14.70
2022-12-23T00:29:44.304Z,9.98
2022-12-23T00:32:11.049Z,9.75
2022-12-23T00:34:39.239Z,8.63
2022-12-23T00:37:05.939Z,8.63
2022-12-23T00:39:32.678Z,11.98
2022-12-23T00:41:59.422Z,11.32
2022-12-23T00:44:26.124Z,10.38
2022-12-23T00:46:53.140Z,10.73
2022-12-23T00:49:20.451Z,17.38
2022-12-23T00:51:48.734Z,11.10
2022-12-23T00:54:16.098Z,10.43
2022-12-23T00:56:43.147Z,8.65
2022-12-23T00:59:09.964Z,11.50
2022-12-23T01:01:36.880Z,18.10
2022-12-23T01:04:04.119Z,11.18
2022-12-23T01:06:30.902Z,9.68
2022-12-23T01:08:58.971Z,13.75
2022-12-23T01:11:25.699Z,10.35
2022-12-23T01:13:52.528Z,11.23
2022-12-23T01:16:19.470Z,11.35
2022-12-23T01:18:46.347Z,10.18
2022-12-23T01:21:13.633Z,10.85
2022-12-23T01:23:40.546Z,10.90
2022-12-23T01:26:09.271Z,15.43
2022-12-23T01:28:36.611Z,9.88
2022-12-23T01:31:05.303Z,14.18
2022-12-23T01:33:33.125Z,8.30
2022-12-23T01:36:00.570Z,10.68
2022-12-23T01:38:27.378Z,13.98
2022-12-23T01:40:54.053Z,11.02
2022-12-23T01:43:22.861Z,13.40
2022-12-23T01:45:49.748Z,10.57
2022-12-23T01:48:19.894Z,12.48
2022-12-23T01:50:49.199Z,10.88
2022-12-23T01:53:20.215Z,12.38
2022-12-23T01:55:50.932Z,10.02
2022-12-23T01:58:22.259Z,13.75
2022-12-23T02:00:50.483Z,11.40
2022-12-23T02:03:17.296Z,10.02
2022-12-23T02:05:45.583Z,10.10
2022-12-23T02:08:14.969Z,9.88
2022-12-23T02:11:01.451Z,8.63
2022-12-23T02:13:34.792Z,12.10
2022-12-23T02:16:09.345Z,9.07
2022-12-23T02:18:51.547Z,11.90
2022-12-23T02:21:47.631Z,11.35
2022-12-23T02:24:48.090Z,9.93
2022-12-23T02:27:25.886Z,10.25
2022-12-23T02:30:18.807Z,14.18
2022-12-23T02:33:00.331Z,15.80
2022-12-23T02:35:32.912Z,14.45
2022-12-23T02:38:06.577Z,9.93
2022-12-23T02:40:39.484Z,14.77
2022-12-23T02:43:14.595Z,15.23
2022-12-23T02:45:45.446Z,12.52
2022-12-23T02:48:20.270Z,14.98
2022-12-23T02:50:48.258Z,12.73
2022-12-23T02:53:25.997Z,9.82
2022-12-23T02:55:56.322Z,12.30
2022-12-23T02:58:27.890Z,10.27
2022-12-23T03:00:55.441Z,15.40
2022-12-23T03:03:24.994Z,11.77
2022-12-23T03:05:53.529Z,12.75
2022-12-23T03:08:23.863Z,13.77
2022-12-23T03:11:03.426Z,13.95
2022-12-23T03:13:41.042Z,9.68
2022-12-23T03:16:17.915Z,14.50
2022-12-23T03:19:02.320Z,11.15
2022-12-23T03:21:34.404Z,13.07
2022-12-23T03:24:08.158Z,8.27
2022-12-23T03:26:40.963Z,17.55
2022-12-23T03:29:15.122Z,9.45
2022-12-23T03:31:49.657Z,11.13
2022-12-23T03:34:22.206Z,10.13
2022-12-23T03:36:51.612Z,13.48
2022-12-23T03:39:22.010Z,12.20
2022-12-23T03:41:53.303Z,15.63
2022-12-23T03:44:24.819Z,12.70
2022-12-23T03:46:55.294Z,11.23
2022-12-23T03:49:27.330Z,12.13
2022-12-23T03:51:58.919Z,9.50
2022-12-23T03:54:30.841Z,9.05
2022-12-23T03:57:00.878Z,8.13
2022-12-23T03:59:30.340Z,11.48
2022-12-23T04:02:05.240Z,9.40
2022-12-23T04:04:49.420Z,7.35
2022-12-23T04:07:19.316Z,7.35
2022-12-23T04:09:47.237Z,9.07
2022-12-23T04:12:14.502Z,15.68
2022-12-23T04:14:46.075Z,11.88
2022-12-23T04:17:12.980Z,8.57
2022-12-23T04:19:41.316Z,12.43
2022-12-23T04:22:07.999Z,13.75
2022-12-23T04:24:34.730Z,8.52
2022-12-23T04:27:01.377Z,10.43
2022-12-23T04:29:28.091Z,8.27
2022-12-23T04:31:54.847Z,9.57
2022-12-23T04:34:21.637Z,10.07
2022-12-23T04:36:49.706Z,6.32
2022-12-23T04:39:16.410Z,9.85
2022-12-23T04:41:43.187Z,10.45
2022-12-23T04:44:09.920Z,8.02
2022-12-23T04:46:36.683Z,8.80
2022-12-23T04:49:03.573Z,7.82
2022-12-23T04:51:30.314Z,7.95
2022-12-23T04:53:58.408Z,7.85
2022-12-23T04:56:25.139Z,7.53
2022-12-23T04:58:51.899Z,7.30
2022-12-23T05:01:18.794Z,8.70
2022-12-23T05:03:45.536Z,7.80
2022-12-23T05:06:12.483Z,9.85
2022-12-23T05:08:39.224Z,10.48
2022-12-23T05:11:07.260Z,8.52
2022-12-23T05:13:34.038Z,9.20
2022-12-23T05:16:00.773Z,8.95
2022-12-23T05:18:27.567Z,9.35
2022-12-23T05:20:54.279Z,7.97
2022-12-23T05:23:20.991Z,9.48
2022-12-23T05:25:51.330Z,8.35
2022-12-23T05:28:20.306Z,6.78
2022-12-23T05:30:47.009Z,7.32
2022-12-23T05:33:13.920Z,6.30
2022-12-23T05:35:40.774Z,7.35
2022-12-23T05:38:07.533Z,8.07
2022-12-23T05:40:34.233Z,6.55
2022-12-23T05:43:01.088Z,7.05
2022-12-23T05:45:29.235Z,6.88
2022-12-23T05:47:56.015Z,6.28
2022-12-23T05:50:22.728Z,9.55
2022-12-23T05:52:49.420Z,7.80
2022-12-23T05:55:19.090Z,6.57
2022-12-23T05:57:45.767Z,6.63
2022-12-23T06:00:13.724Z,7.03
2022-12-23T06:02:42.054Z,8.00
2022-12-23T06:05:10.228Z,8.50
2022-12-23T06:07:37.174Z,7.97
2022-12-23T06:10:04.730Z,9.20
2022-12-23T06:12:31.673Z,10.68
2022-12-23T06:14:58.467Z,12.80
2022-12-23T06:17:25.291Z,10.57
2022-12-23T06:19:53.445Z,7.85
2022-12-23T06:22:20.226Z,8.02
2022-12-23T06:24:46.954Z,10.65
2022-12-23T06:27:13.833Z,7.85
2022-12-23T06:29:40.573Z,8.05
2022-12-23T06:32:07.431Z,8.00
2022-12-23T06:34:34.318Z,7.70
2022-12-23T06:37:02.474Z,8.65
2022-12-23T06:39:29.156Z,9.35
2022-12-23T06:41:55.911Z,8.65
2022-12-23T06:44:22.611Z,6.43
2022-12-23T06:46:49.326Z,7.53
2022-12-23T06:49:16.059Z,7.07
2022-12-23T06:51:42.815Z,7.25
2022-12-23T06:54:12.057Z,6.03
2022-12-23T06:56:38.853Z,7.18
2022-12-23T06:59:05.893Z,6.15
2022-12-23T07:01:33.413Z,6.57
2022-12-23T07:04:00.178Z,6.60
2022-12-23T07:06:26.913Z,6.10
2022-12-23T07:08:53.715Z,5.60
2022-12-23T07:11:22.378Z,6.88
2022-12-23T07:13:49.208Z,5.53
2022-12-23T07:16:15.965Z,6.20
2022-12-23T07:18:42.741Z,5.82
2022-12-23T07:21:19.716Z,6.95
2022-12-23T07:23:51.475Z,6.30
2022-12-23T07:26:18.244Z,5.97
2022-12-23T07:28:46.362Z,8.20
2022-12-23T07:31:13.160Z,6.50
2022-12-23T07:33:39.902Z,6.28
2022-12-23T07:36:07.315Z,6.82
2022-12-23T07:38:34.067Z,6.35
2022-12-23T07:41:00.855Z,7.88
2022-12-23T07:43:27.603Z,9.88
2022-12-23T07:46:00.034Z,8.02
2022-12-23T07:48:27.726Z,9.45
2022-12-23T07:51:00.388Z,8.85
2022-12-23T07:53:27.156Z,8.25
2022-12-23T07:55:56.676Z,9.23
2022-12-23T07:58:23.901Z,11.07
2022-12-23T08:00:50.828Z,8.00
2022-12-23T08:03:19.115Z,10.98
2022-12-23T08:05:45.876Z,8.80
2022-12-23T08:08:12.580Z,9.98
2022-12-23T08:10:47.693Z,32.53
2022-12-23T08:13:15.038Z,38.28
2022-12-23T08:15:41.808Z,40.72
2022-12-23T08:18:08.510Z,33.28
2022-12-23T08:20:36.644Z,33.08
2022-12-23T08:23:03.797Z,24.83
2022-12-23T08:25:30.576Z,22.13
2022-12-23T08:27:59.302Z,19.30
2022-12-23T08:30:26.025Z,14.57
2022-12-23T08:32:52.852Z,14.00
2022-12-23T08:35:22.123Z,11.80
2022-12-23T08:37:50.181Z,11.18
2022-12-23T08:40:16.962Z,9.98
2022-12-23T08:42:43.705Z,9.50
2022-12-23T08:45:10.788Z,9.45
2022-12-23T08:47:37.491Z,10.15
2022-12-23T08:50:05.097Z,6.75
2022-12-23T08:52:34.915Z,8.68
2022-12-23T08:55:03.037Z,7.65
2022-12-23T08:57:29.684Z,8.68
2022-12-23T08:59:56.489Z,9.32
2022-12-23T09:02:26.185Z,8.10
2022-12-23T09:04:53.084Z,8.20
2022-12-23T09:07:19.793Z,5.55
2022-12-23T09:09:46.528Z,4.13
2022-12-23T09:12:17.457Z,5.43
2022-12-23T09:14:44.636Z,5.65
2022-12-23T09:17:11.330Z,5.75
2022-12-23T09:19:48.707Z,6.53
2022-12-23T09:22:19.294Z,4.93
2022-12-23T09:24:45.994Z,5.03
2022-12-23T09:27:14.023Z,3.75
2022-12-23T09:29:43.301Z,7.15
2022-12-23T09:32:12.986Z,5.38
2022-12-23T09:34:39.667Z,6.97
2022-12-23T09:37:06.475Z,7.43
2022-12-23T09:39:33.748Z,8.20
2022-12-23T09:42:07.229Z,8.70
2022-12-23T09:44:49.137Z,6.93
2022-12-23T09:47:23.919Z,7.22
2022-12-23T09:49:54.079Z,7.18
2022-12-23T09:52:25.179Z,6.07
2022-12-23T09:55:01.106Z,4.97
2022-12-23T09:57:33.232Z,4.22
2022-12-23T10:00:10.150Z,2.88
2022-12-23T10:03:15.202Z,2.22
2022-12-23T10:05:51.523Z,3.13
2022-12-23T10:08:24.013Z,3.30
2022-12-23T10:10:55.659Z,4.32
2022-12-23T10:13:31.648Z,4.78
2022-12-23T10:16:02.778Z,3.55
2022-12-23T10:18:40.115Z,4.38
2022-12-23T10:21:12.781Z,3.80
2022-12-23T10:23:43.568Z,4.68
2022-12-23T10:26:17.513Z,4.03
2022-12-23T10:28:44.282Z,5.20
2022-12-23T10:31:39.170Z,3.67
2022-12-23T10:34:11.685Z,3.53
2022-12-23T10:36:50.081Z,4.60
2022-12-23T10:39:25.502Z,6.78
2022-12-23T10:42:04.465Z,5.25
2022-12-23T10:45:11.422Z,5.53
2022-12-23T10:47:55.103Z,5.00
2022-12-23T10:50:36.905Z,5.63
2022-12-23T10:53:09.939Z,6.78
2022-12-23T10:55:38.121Z,5.63
2022-12-23T10:58:08.750Z,4.88
2022-12-23T11:00:39.432Z,4.72
2022-12-23T11:03:16.382Z,4.15
2022-12-23T11:05:44.477Z,2.95
2022-12-23T11:08:11.700Z,5.07
2022-12-23T11:10:39.948Z,5.40
2022-12-23T11:13:06.846Z,4.22
2022-12-23T11:15:35.603Z,3.75
2022-12-23T11:18:07.373Z,4.70
2022-12-23T11:20:36.698Z,4.63
2022-12-23T11:23:05.268Z,5.22
2022-12-23T11:25:35.062Z,5.18
2022-12-23T11:28:05.395Z,4.80
2022-12-23T11:30:36.874Z,4.55
2022-12-23T11:33:04.343Z,3.58
2022-12-23T11:35:32.448Z,6.20
2022-12-23T11:38:02.417Z,4.35
2022-12-23T11:40:31.730Z,4.10
2022-12-23T11:43:02.042Z,4.82
2022-12-23T11:45:30.517Z,4.20
2022-12-23T11:47:57.243Z,3.38
2022-12-23T11:50:33.574Z,4.57
2022-12-23T11:53:20.411Z,4.38
2022-12-23T11:55:58.925Z,5.25
2022-12-23T11:58:29.701Z,4.20
2022-12-23T12:00:59.347Z,3.63
2022-12-23T12:03:31.697Z,4.28
2022-12-23T12:06:00.897Z,3.83
2022-12-23T12:08:32.468Z,4.40
2022-12-23T12:11:06.060Z,4.05
2022-12-23T12:13:38.186Z,5.75
2022-12-23T12:16:21.917Z,6.05
2022-12-23T12:18:55.499Z,10.10
2022-12-23T12:21:26.009Z,9.80
2022-12-23T12:24:17.046Z,7.47
2022-12-23T12:26:46.441Z,8.23
2022-12-23T12:29:18.607Z,20.15
2022-12-23T12:31:48.340Z,11.70
2022-12-23T12:34:30.086Z,7.22
2022-12-23T12:37:03.284Z,5.63
2022-12-23T12:39:36.000Z,8.75
2022-12-23T12:42:11.977Z,5.97
2022-12-23T12:44:42.421Z,5.57
2022-12-23T12:47:44.634Z,5.63
2022-12-23T12:50:06.549Z,6.95
2022-12-23T12:52:39.702Z,7.93
2022-12-23T12:55:16.758Z,5.25
2022-12-23T12:57:43.532Z,5.75
2022-12-23T13:00:18.466Z,5.20
2022-12-23T13:03:01.407Z,5.88
2022-12-23T13:05:54.414Z,6.93
2022-12-23T13:08:37.466Z,6.57
2022-12-23T13:11:10.371Z,7.10
2022-12-23T13:13:44.438Z,6.43
2022-12-23T13:16:23.785Z,7.32
2022-12-23T13:19:00.676Z,7.20
2022-12-23T13:21:32.847Z,6.25
2022-12-23T13:24:07.893Z,6.78
2022-12-23T13:26:39.774Z,8.18
2022-12-23T13:29:30.576Z,7.50
2022-12-23T13:32:05.191Z,7.55
2022-12-23T13:34:42.154Z,6.47
2022-12-23T13:37:16.342Z,7.60
2022-12-23T13:39:55.784Z,8.20
2022-12-23T13:42:32.873Z,8.48
2022-12-23T13:45:01.073Z,8.68
2022-12-23T13:47:41.276Z,8.40
2022-12-23T13:50:13.260Z,7.65
2022-12-23T13:52:55.599Z,9.82
2022-12-23T13:55:43.497Z,10.73
2022-12-23T13:58:16.485Z,10.27
2022-12-23T14:00:43.568Z,10.73
2022-12-23T14:03:22.407Z,14.88
2022-12-23T14:05:49.945Z,12.30
2022-12-23T14:08:23.829Z,13.98
2022-12-23T14:10:53.224Z,14.70
2022-12-23T14:13:24.544Z,10.80
2022-12-23T14:16:10.872Z,9.80
2022-12-23T14:19:06.728Z,10.82
2022-12-23T14:21:44.057Z,13.32
2022-12-23T14:24:40.323Z,13.40
2022-12-23T14:27:33.956Z,9.43
2022-12-23T14:30:11.368Z,9.48
2022-12-23T14:32:45.600Z,12.50
2022-12-23T14:35:48.200Z,10.85
2022-12-23T14:39:05.729Z,11.02
2022-12-23T14:41:39.969Z,10.75
2022-12-23T14:44:19.879Z,10.18
2022-12-23T14:46:57.789Z,11.73
2022-12-23T14:49:39.999Z,12.60
2022-12-23T14:52:45.613Z,9.80
2022-12-23T14:55:41.003Z,12.23
2022-12-23T14:58:18.719Z,10.88
2022-12-23T15:00:47.089Z,12.20
2022-12-23T15:03:16.513Z,12.30
2022-12-23T15:05:43.464Z,11.05
2022-12-23T15:08:28.934Z,10.50
2022-12-23T15:10:56.633Z,11.20
2022-12-23T15:13:25.829Z,12.50
2022-12-23T15:15:59.154Z,12.25
2022-12-23T15:18:29.049Z,12.75
2022-12-23T15:21:00.392Z,13.57
2022-12-23T15:23:27.400Z,14.77
2022-12-23T15:25:57.055Z,16.65
2022-12-23T15:28:32.099Z,11.50
2022-12-23T15:31:02.662Z,12.23
2022-12-23T15:34:02.191Z,11.98
2022-12-23T15:36:25.498Z,12.80
2022-12-23T15:38:52.317Z,14.27
2022-12-23T15:41:19.216Z,13.15
2022-12-23T15:43:45.868Z,12.73
2022-12-23T15:46:18.947Z,15.40
2022-12-23T15:48:50.598Z,15.13
2022-12-23T15:51:57.592Z,12.85
2022-12-23T15:54:22.541Z,12.70
2022-12-23T15:56:52.151Z,11.68
2022-12-23T15:59:23.724Z,15.43
2022-12-23T16:01:51.117Z,16.85
2022-12-23T16:04:24.893Z,14.95
2022-12-23T16:06:51.645Z,12.98
2022-12-23T16:09:31.224Z,11.90
2022-12-23T16:11:59.867Z,16.35
2022-12-23T16:14:38.541Z,13.68
2022-12-23T16:17:21.754Z,13.13
2022-12-23T16:19:54.569Z,13.48
2022-12-23T16:22:26.994Z,58.67
2022-12-23T16:25:00.004Z,27.77
2022-12-23T16:27:34.498Z,17.80
2022-12-23T16:30:08.238Z,17.98
2022-12-23T16:32:48.384Z,16.00
2022-12-23T16:35:27.052Z,18.70
2022-12-23T16:37:57.311Z,19.45
2022-12-23T16:40:24.024Z,22.30
2022-12-23T16:42:50.771Z,17.95
2022-12-23T16:45:17.472Z,17.50
2022-12-23T16:47:44.252Z,15.32
2022-12-23T16:50:14.283Z,15.32
2022-12-23T16:52:42.447Z,15.30
2022-12-23T16:55:14.963Z,13.68
2022-12-23T16:57:41.818Z,16.85
2022-12-23T17:00:12.755Z,14.88
2022-12-23T17:02:39.639Z,13.23
2022-12-23T17:05:07.267Z,12.88
2022-12-23T17:07:33.980Z,13.85
2022-12-23T17:10:02.168Z,13.88
2022-12-23T17:12:28.911Z,13.88
2022-12-23T17:14:55.606Z,14.98
2022-12-23T17:17:22.663Z,13.75
2022-12-23T17:19:50.055Z,13.27
2022-12-23T17:22:16.808Z,12.95
2022-12-23T17:24:43.710Z,13.68
2022-12-23T17:27:17.813Z,12.80
2022-12-23T17:29:44.549Z,13.18
2022-12-23T17:32:12.177Z,10.98
2022-12-23T17:34:39.091Z,13.52
2022-12-23T17:37:13.437Z,12.38
2022-12-23T17:39:41.736Z,12.02
2022-12-23T17:42:17.758Z,11.10
2022-12-23T17:44:48.985Z,10.68
2022-12-23T17:47:18.145Z,11.63
2022-12-23T17:49:45.588Z,18.25
2022-12-23T17:52:14.569Z,17.80
2022-12-23T17:54:41.368Z,18.80
2022-12-23T17:57:19.123Z,18.88
2022-12-23T17:59:47.873Z,14.10
2022-12-23T18:02:22.006Z,13.65
2022-12-23T18:04:49.283Z,14.00
2022-12-23T18:07:16.292Z,15.23
2022-12-23T18:09:43.309Z,16.83
2022-12-23T18:12:24.975Z,17.65
2022-12-23T18:14:52.114Z,15.90
2022-12-23T18:17:18.983Z,17.67
2022-12-23T18:19:45.806Z,18.02
2022-12-23T18:22:19.822Z,18.13
2022-12-23T18:24:49.383Z,18.23
2022-12-23T18:27:22.273Z,12.95
2022-12-23T18:29:49.162Z,11.30
2022-12-23T18:32:24.210Z,12.85
2022-12-23T18:34:52.272Z,13.13
2022-12-23T18:37:20.229Z,10.55
2022-12-23T18:39:47.545Z,13.45
2022-12-23T18:42:15.555Z,13.05
2022-12-23T18:44:45.503Z,11.55
2022-12-23T18:47:12.616Z,9.73
2022-12-23T18:49:39.663Z,8.20
2022-12-23T18:52:09.978Z,10.45
2022-12-23T18:54:36.828Z,7.75
2022-12-23T18:57:06.785Z,6.15
2022-12-23T18:59:33.791Z,5.50
2022-12-23T19:02:02.754Z,4.72
2022-12-23T19:04:29.557Z,4.93
2022-12-23T19:06:57.292Z,5.78
2022-12-23T19:09:25.175Z,5.68
2022-12-23T19:11:53.240Z,5.50
2022-12-23T19:14:20.238Z,5.47
2022-12-23T19:16:51.464Z,6.00
2022-12-23T19:19:20.697Z,4.18
2022-12-23T19:21:47.455Z,5.45
2022-12-23T19:24:14.539Z,4.70
2022-12-23T19:26:41.201Z,4.97
2022-12-23T19:29:08.604Z,4.00
2022-12-23T19:31:35.460Z,5.18
2022-12-23T19:34:02.222Z,5.95
2022-12-23T19:36:30.391Z,3.08
2022-12-23T19:38:57.605Z,4.15
2022-12-23T19:41:24.817Z,3.85
2022-12-23T19:43:51.548Z,4.20
2022-12-23T19:46:18.846Z,4.72
2022-12-23T19:48:50.448Z,5.05
2022-12-23T19:51:17.227Z,4.88
2022-12-23T19:53:45.387Z,7.30
2022-12-23T19:56:13.848Z,5.63
2022-12-23T19:58:42.679Z,8.00
2022-12-23T20:01:11.939Z,7.65
2022-12-23T20:03:40.150Z,7.55
2022-12-23T20:06:11.632Z,8.90
2022-12-23T20:08:38.315Z,8.07
2022-12-23T20:11:08.894Z,9.77
2022-12-23T20:13:36.032Z,6.55
2022-12-23T20:16:03.716Z,5.38
2022-12-23T20:18:30.966Z,5.93
2022-12-23T20:20:57.968Z,4.72
2022-12-23T20:23:24.712Z,5.35
2022-12-23T20:25:51.388Z,4.72
2022-12-23T20:28:19.657Z,5.30
2022-12-23T20:30:46.855Z,4.78
2022-12-23T20:33:14.165Z,4.88
2022-12-23T20:35:40.904Z,5.00
2022-12-23T20:38:10.442Z,3.65
2022-12-23T20:40:37.144Z,3.83
2022-12-23T20:43:03.885Z,2.95
2022-12-23T20:45:32.005Z,4.22
2022-12-23T20:47:58.733Z,4.47
2022-12-23T20:50:25.473Z,4.13
2022-12-23T20:52:52.159Z,6.85
2022-12-23T20:55:18.838Z,4.57
2022-12-23T20:57:45.576Z,3.72
2022-12-23T21:00:13.868Z,4.65
2022-12-23T21:02:42.017Z,5.45
2022-12-23T21:05:09.145Z,5.05
2022-12-23T21:07:35.881Z,6.60
2022-12-23T21:10:03.099Z,5.28
2022-12-23T21:12:29.843Z,4.45
2022-12-23T21:14:56.766Z,4.03
2022-12-23T21:17:23.469Z,4.15
2022-12-23T21:19:51.562Z,5.28
2022-12-23T21:22:18.346Z,4.75
2022-12-23T21:24:45.020Z,6.10
2022-12-23T21:27:11.708Z,4.95
2022-12-23T21:29:38.362Z,5.43
2022-12-23T21:32:05.293Z,4.63
2022-12-23T21:34:31.982Z,5.22
2022-12-23T21:37:00.135Z,6.07
2022-12-23T21:39:27.412Z,6.10
2022-12-23T21:41:54.183Z,4.93
2022-12-23T21:44:20.977Z,6.45
2022-12-23T21:46:50.103Z,6.00
2022-12-23T21:49:17.029Z,7.13
2022-12-23T21:51:43.843Z,4.35
2022-12-23T21:54:12.371Z,4.63
2022-12-23T21:56:39.980Z,6.00
2022-12-23T21:59:08.806Z,5.60
2022-12-23T22:01:35.552Z,6.95
2022-12-23T22:04:02.961Z,6.05
2022-12-23T22:06:31.696Z,6.72
2022-12-23T22:08:58.768Z,6.50
2022-12-23T22:11:29.015Z,5.15
2022-12-23T22:13:56.954Z,5.57
2022-12-23T22:16:25.534Z,10.73
2022-12-23T22:18:53.144Z,6.47
2022-12-23T22:21:21.699Z,8.27
2022-12-23T22:23:49.627Z,5.97
2022-12-23T22:26:24.251Z,8.70
2022-12-23T22:28:54.685Z,11.07
2022-12-23T22:31:27.092Z,5.78
2022-12-23T22:33:53.857Z,5.45
2022-12-23T22:36:20.626Z,5.78
2022-12-23T22:38:52.683Z,9.30
2022-12-23T22:41:19.541Z,9.63
2022-12-23T22:43:46.289Z,5.18
2022-12-23T22:46:15.267Z,6.13
2022-12-23T22:48:42.097Z,6.68
2022-12-23T22:51:14.600Z,7.30
2022-12-23T22:53:41.377Z,4.20
2022-12-23T22:56:08.370Z,5.70
2022-12-23T22:58:35.255Z,7.60
2022-12-23T23:01:02.219Z,7.38
2022-12-23T23:03:30.386Z,9.10
2022-12-23T23:05:59.462Z,7.82
2022-12-23T23:08:26.359Z,8.38
2022-12-23T23:10:53.108Z,8.25
2022-12-23T23:13:19.915Z,8.02
2022-12-23T23:15:47.250Z,7.43
2022-12-23T23:18:13.969Z,7.95
2022-12-23T23:20:42.315Z,7.97
2022-12-23T23:23:08.967Z,4.47
2022-12-23T23:25:35.650Z,10.10
2022-12-23T23:28:02.332Z,5.32
2022-12-23T23:30:29.067Z,6.85
2022-12-23T23:32:55.823Z,7.28
2022-12-23T23:35:22.545Z,5.97
2022-12-23T23:37:50.638Z,6.30
2022-12-23T23:40:17.537Z,10.13
2022-12-23T23:42:44.276Z,7.38
2022-12-23T23:45:11.284Z,8.10
2022-12-23T23:47:38.023Z,9.75
2022-12-23T23:50:06.420Z,6.25
2022-12-23T23:52:33.124Z,5.72
2022-12-23T23:55:01.305Z,10.55
2022-12-23T23:57:28.171Z,7.63
2022-12-23T23:59:54.904Z,9.00
